Time;durP1;ratioP1;P1;durP2;ratioP2;P2;SDS_P1;SDS_P2;PMS_P1;PMS_P2;Temp;Humidity;BMP_temperature;BMP_pressure;BME280_temperature;BME280_humidity;BME280_pressure;Samples;Min_cycle;Max_cycle;Signal;HPM_P1;HPM_P2
2022/03/16 00:01:25;;;;;;;64.43;42.43;;;;;;;9.18;39.43;95531.16;5041254;28;20441;-81
2022/03/16 00:03:51;;;;;;;71.73;43.50;;;;;;;8.78;40.92;95530.13;5045044;28;20208;-81
2022/03/16 00:06:17;;;;;;;75.63;42.60;;;;;;;8.95;40.17;95525.75;5037623;28;20506;-82
2022/03/16 00:08:42;;;;;;;61.00;40.97;;;;;;;8.97;40.72;95524.63;5025857;28;20310;-80
2022/03/16 00:11:08;;;;;;;58.87;34.20;;;;;;;8.89;41.26;95529.03;5050868;28;20211;-82
2022/03/16 00:13:33;;;;;;;56.07;35.63;;;;;;;9.29;40.53;95522.19;5051196;28;20175;-81
2022/03/16 00:15:59;;;;;;;51.20;33.80;;;;;;;9.18;40.22;95534.59;5039662;28;20194;-81
2022/03/16 00:18:24;;;;;;;51.90;32.20;;;;;;;9.32;39.68;95529.69;5041676;28;20207;-81
2022/03/16 00:20:50;;;;;;;42.73;30.10;;;;;;;9.04;40.74;95527.41;5038136;28;20194;-80
2022/03/16 00:23:18;;;;;;;40.40;29.30;;;;;;;8.88;40.32;95535.22;5047139;28;20179;-81
2022/03/16 00:25:44;;;;;;;38.73;26.27;;;;;;;8.74;40.85;95511.38;5046348;28;20190;-80
2022/03/16 00:28:09;;;;;;;39.97;25.50;;;;;;;8.88;41.59;95503.88;5033878;28;20418;-80
2022/03/16 00:30:39;;;;;;;39.40;25.40;;;;;;;9.05;40.53;95497.72;5046630;28;20270;-80
2022/03/16 00:33:04;;;;;;;31.10;22.30;;;;;;;9.15;40.45;95508.00;5057157;28;20210;-80
2022/03/16 00:35:30;;;;;;;32.00;24.63;;;;;;;8.85;40.32;95506.84;5060794;28;20464;-81
2022/03/16 00:37:55;;;;;;;30.53;22.50;;;;;;;8.84;40.66;95489.53;5056026;28;20182;-81
2022/03/16 00:40:21;;;;;;;39.23;22.33;;;;;;;8.94;39.94;95477.97;5038024;28;20246;-81
2022/03/16 00:42:46;;;;;;;32.97;24.87;;;;;;;8.82;40.62;95468.00;5062534;28;20203;-81
2022/03/16 00:45:12;;;;;;;36.03;25.70;;;;;;;8.88;40.99;95470.78;5063821;28;20191;-81
2022/03/16 00:47:38;;;;;;;33.03;24.87;;;;;;;8.72;41.30;95468.16;5056107;28;20186;-81
2022/03/16 00:50:04;;;;;;;34.97;25.07;;;;;;;8.83;41.11;95470.47;5050390;28;20195;-81
2022/03/16 00:52:29;;;;;;;36.37;26.00;;;;;;;9.16;39.95;95458.22;5037738;28;20217;-81
2022/03/16 00:54:55;;;;;;;39.80;25.77;;;;;;;9.46;39.56;95450.63;5068412;28;20456;-81
2022/03/16 00:57:20;;;;;;;35.97;25.53;;;;;;;8.97;40.18;95450.72;5066798;28;20175;-81
2022/03/16 00:59:45;;;;;;;42.43;28.30;;;;;;;8.96;40.67;95455.13;5031444;28;20187;-81
2022/03/16 01:02:11;;;;;;;38.60;24.17;;;;;;;8.88;41.34;95446.47;5045507;28;20194;-81
2022/03/16 01:04:36;;;;;;;33.50;25.30;;;;;;;8.96;40.32;95449.09;5031561;28;20168;-80
2022/03/16 01:07:02;;;;;;;32.77;24.10;;;;;;;9.33;40.60;95434.66;5037667;28;20175;-81
2022/03/16 01:09:27;;;;;;;23.47;17.80;;;;;;;8.66;41.99;95433.09;5069011;28;20226;-80
2022/03/16 01:11:53;;;;;;;27.60;21.93;;;;;;;8.66;41.97;95435.72;5069541;28;20297;-81
2022/03/16 01:14:18;;;;;;;31.13;21.60;;;;;;;8.76;40.94;95446.81;5037283;28;20194;-80
2022/03/16 01:16:44;;;;;;;29.60;20.87;;;;;;;8.88;41.91;95430.81;5064480;28;20245;-81
2022/03/16 01:19:14;;;;;;;31.67;21.20;;;;;;;8.64;41.01;95429.84;5069252;28;20191;-81
2022/03/16 01:21:40;;;;;;;29.33;20.90;;;;;;;8.71;41.45;95423.00;5064229;28;20521;-81
2022/03/16 01:24:06;;;;;;;26.70;18.23;;;;;;;9.08;41.44;95410.41;5051370;28;20433;-80
2022/03/16 01:26:31;;;;;;;25.73;19.87;;;;;;;8.81;41.54;95401.94;5036132;28;20964;-80
2022/03/16 01:28:57;;;;;;;26.17;19.33;;;;;;;8.81;41.50;95395.94;5064471;28;20233;-80
2022/03/16 01:31:23;;;;;;;26.23;19.53;;;;;;;9.25;39.87;95400.75;5049014;28;20262;-81
2022/03/16 01:33:48;;;;;;;28.80;20.80;;;;;;;8.53;41.77;95412.69;5062559;28;20657;-82
2022/03/16 01:36:14;;;;;;;32.17;20.87;;;;;;;8.61;41.34;95404.06;5069391;28;20185;-81
2022/03/16 01:38:39;;;;;;;25.70;18.90;;;;;;;8.70;41.11;95412.72;5056439;28;20242;-80
2022/03/16 01:41:04;;;;;;;24.87;20.10;;;;;;;8.61;41.60;95409.28;5066490;28;20193;-80
2022/03/16 01:43:30;;;;;;;26.37;20.93;;;;;;;8.95;40.38;95397.84;5050975;28;20170;-81
2022/03/16 01:45:55;;;;;;;24.80;19.47;;;;;;;8.38;41.14;95391.66;5049799;28;20183;-80
2022/03/16 01:48:21;;;;;;;34.73;21.70;;;;;;;8.46;41.21;95388.28;5040962;28;20183;-81
2022/03/16 01:50:48;;;;;;;30.93;22.37;;;;;;;8.11;42.09;95387.53;5034380;28;20269;-81
2022/03/16 01:53:13;;;;;;;24.73;20.57;;;;;;;8.90;40.37;95371.44;5058065;28;20179;-80
2022/03/16 01:55:40;;;;;;;26.50;19.57;;;;;;;8.67;40.79;95387.78;5047709;28;20529;-80
2022/03/16 01:58:05;;;;;;;31.80;20.63;;;;;;;8.49;41.04;95381.91;5057539;28;20174;-80
2022/03/16 02:00:31;;;;;;;25.37;20.33;;;;;;;8.89;40.92;95365.41;5055154;28;20470;-80
2022/03/16 02:02:56;;;;;;;26.53;19.77;;;;;;;8.51;41.96;95370.31;5059750;28;20179;-80
2022/03/16 02:05:22;;;;;;;27.67;19.73;;;;;;;8.33;41.77;95367.03;5030364;28;20258;-80
2022/03/16 02:07:48;;;;;;;30.57;22.17;;;;;;;8.57;41.04;95374.06;5055381;28;20260;-82
2022/03/16 02:10:14;;;;;;;26.30;19.83;;;;;;;8.20;41.80;95370.13;5054365;28;20231;-81
2022/03/16 02:12:50;;;;;;;31.63;21.17;;;;;;;8.68;40.73;95354.66;5043032;28;20477;-80
2022/03/16 02:15:17;;;;;;;30.50;21.13;;;;;;;8.74;41.06;95362.63;5047876;28;20441;-81
2022/03/16 02:17:43;;;;;;;27.43;21.83;;;;;;;8.75;40.61;95360.88;5030790;28;20422;-80
2022/03/16 02:20:09;;;;;;;29.37;22.00;;;;;;;9.11;40.58;95356.06;5043304;28;20599;-81
2022/03/16 02:22:41;;;;;;;32.07;21.97;;;;;;;8.83;40.47;95363.44;5049845;28;20242;-81
2022/03/16 02:25:08;;;;;;;25.87;21.70;;;;;;;8.33;42.48;95352.22;5061630;28;20497;-81
2022/03/16 02:27:37;;;;;;;31.83;21.93;;;;;;;8.64;41.42;95333.31;5043277;28;20464;-81
2022/03/16 02:30:03;;;;;;;36.47;22.90;;;;;;;8.87;40.60;95353.50;5038573;28;20441;-81
2022/03/16 02:32:28;;;;;;;26.40;22.07;;;;;;;9.01;40.75;95342.41;5047686;28;20450;-81
2022/03/16 02:34:54;;;;;;;28.03;22.50;;;;;;;9.04;40.96;95342.03;5043032;28;20247;-81
2022/03/16 02:37:19;;;;;;;28.87;22.50;;;;;;;8.79;41.32;95354.34;5062522;28;20187;-81
2022/03/16 02:39:47;;;;;;;31.20;22.20;;;;;;;9.06;40.45;95345.28;5051781;28;20669;-81
2022/03/16 02:42:13;;;;;;;30.63;22.70;;;;;;;8.88;41.27;95342.06;5056598;28;20187;-81
2022/03/16 02:44:38;;;;;;;30.07;23.67;;;;;;;9.02;41.22;95341.41;5032622;28;20429;-81
2022/03/16 02:47:04;;;;;;;29.20;23.93;;;;;;;9.01;40.18;95344.16;5039543;28;20175;-81
2022/03/16 02:49:31;;;;;;;38.47;28.03;;;;;;;9.06;39.88;95344.50;5057087;28;20179;-80
2022/03/16 02:51:57;;;;;;;41.17;26.40;;;;;;;8.98;40.57;95350.53;5055772;28;20455;-80
2022/03/16 02:54:23;;;;;;;30.43;23.80;;;;;;;8.95;40.67;95348.25;5059610;28;20505;-80
2022/03/16 02:56:48;;;;;;;31.80;23.27;;;;;;;9.14;40.40;95342.69;5059568;28;20410;-81
2022/03/16 02:59:14;;;;;;;29.00;23.77;;;;;;;9.42;39.63;95333.59;5057652;28;20199;-80
2022/03/16 03:01:40;;;;;;;28.90;21.63;;;;;;;9.37;40.15;95336.69;5060481;28;20625;-81
2022/03/16 03:04:08;;;;;;;29.37;21.83;;;;;;;9.00;41.63;95319.88;5052495;28;20422;-81
2022/03/16 03:06:34;;;;;;;31.20;22.07;;;;;;;8.90;41.35;95320.06;5066742;28;20210;-81
2022/03/16 03:08:59;;;;;;;26.37;23.50;;;;;;;8.84;41.37;95319.88;5069406;28;20477;-81
2022/03/16 03:11:25;;;;;;;29.60;22.67;;;;;;;9.27;40.94;95304.75;5048108;28;20221;-81
2022/03/16 03:13:50;;;;;;;25.70;22.30;;;;;;;8.98;41.77;95306.16;5050934;28;20240;-81
2022/03/16 03:16:16;;;;;;;26.57;21.33;;;;;;;8.96;40.98;95305.53;5061450;28;20201;-81
2022/03/16 03:18:41;;;;;;;33.03;23.57;;;;;;;8.92;41.19;95310.25;5056978;28;20182;-81
2022/03/16 03:21:07;;;;;;;29.90;20.67;;;;;;;8.99;41.07;95310.38;5053113;28;20171;-80
2022/03/16 03:23:32;;;;;;;28.50;22.63;;;;;;;8.99;40.79;95305.16;5039705;28;20716;-81
2022/03/16 03:25:57;;;;;;;33.47;23.60;;;;;;;8.92;40.81;95304.22;5032968;28;20186;-81
2022/03/16 03:28:23;;;;;;;24.53;19.93;;;;;;;8.99;41.35;95307.78;5064524;28;20617;-81
2022/03/16 03:30:48;;;;;;;27.93;20.83;;;;;;;8.93;41.00;95317.09;5057259;28;20201;-81
2022/03/16 03:33:14;;;;;;;28.47;19.77;;;;;;;9.35;41.05;95309.94;5046708;28;20183;-80
2022/03/16 03:35:39;;;;;;;23.67;19.40;;;;;;;9.05;41.84;95307.13;5046234;28;20191;-81
2022/03/16 03:38:05;;;;;;;27.80;20.20;;;;;;;8.66;41.65;95310.47;5047265;28;20197;-81
2022/03/16 03:40:30;;;;;;;25.80;18.87;;;;;;;9.16;40.94;95301.53;5055814;28;20190;-81
2022/03/16 03:42:56;;;;;;;23.50;19.87;;;;;;;8.98;41.52;95293.91;5049097;28;20238;-81
2022/03/16 03:45:21;;;;;;;20.83;18.47;;;;;;;8.72;41.78;95299.38;5053281;28;20190;-81
2022/03/16 03:47:46;;;;;;;27.10;20.50;;;;;;;8.66;42.10;95300.03;5067175;28;20167;-82
2022/03/16 03:50:12;;;;;;;23.87;19.87;;;;;;;8.67;42.13;95298.22;5039005;28;20192;-81
2022/03/16 03:52:38;;;;;;;24.90;21.07;;;;;;;8.67;42.69;95291.25;5065760;28;20206;-81
2022/03/16 03:55:04;;;;;;;26.53;20.50;;;;;;;8.94;41.89;95286.59;5056656;28;20193;-81
2022/03/16 03:57:29;;;;;;;27.93;20.00;;;;;;;8.78;41.50;95301.34;5059114;28;20340;-82
2022/03/16 03:59:55;;;;;;;29.20;20.97;;;;;;;8.91;42.44;95298.19;5057240;28;20433;-81
2022/03/16 04:02:20;;;;;;;25.90;19.97;;;;;;;8.90;41.96;95293.97;5050472;28;20172;-81
2022/03/16 04:04:46;;;;;;;36.40;23.50;;;;;;;9.07;41.74;95293.88;5050503;28;20183;-80
2022/03/16 04:07:11;;;;;;;31.93;22.57;;;;;;;9.47;40.65;95289.50;5059286;28;20216;-81
2022/03/16 04:09:37;;;;;;;30.10;20.60;;;;;;;9.36;40.88;95294.09;5055376;28;20313;-80
2022/03/16 04:12:02;;;;;;;33.90;23.70;;;;;;;9.23;40.86;95293.03;5064522;28;20218;-80
2022/03/16 04:14:28;;;;;;;30.90;24.63;;;;;;;8.87;42.07;95293.47;5049570;28;20226;-80
2022/03/16 04:16:53;;;;;;;33.00;22.80;;;;;;;8.98;41.90;95293.91;5056950;28;20193;-80
2022/03/16 04:19:19;;;;;;;31.60;24.10;;;;;;;8.92;42.24;95278.13;5065185;28;20182;-80
2022/03/16 04:21:44;;;;;;;36.57;24.07;;;;;;;8.86;42.03;95282.22;5045888;28;20187;-80
2022/03/16 04:24:09;;;;;;;32.23;24.70;;;;;;;9.04;42.15;95279.38;5049979;28;20179;-80
2022/03/16 04:26:35;;;;;;;37.23;25.83;;;;;;;9.35;41.42;95275.97;5050302;28;20266;-81
2022/03/16 04:29:00;;;;;;;34.97;25.23;;;;;;;8.99;41.65;95279.06;5063764;28;20183;-80
2022/03/16 04:31:26;;;;;;;32.57;24.50;;;;;;;9.05;42.53;95264.53;5055561;28;20301;-81
2022/03/16 04:33:52;;;;;;;32.07;24.30;;;;;;;8.88;42.31;95263.75;5066315;28;20179;-80
2022/03/16 04:36:18;;;;;;;34.07;24.10;;;;;;;9.41;41.04;95264.88;5059658;28;20331;-80
2022/03/16 04:38:43;;;;;;;30.20;23.27;;;;;;;9.27;42.10;95262.97;5052897;28;20413;-80
2022/03/16 04:41:08;;;;;;;30.73;23.07;;;;;;;9.07;41.88;95252.94;5031404;28;20179;-80
2022/03/16 04:43:34;;;;;;;34.57;25.93;;;;;;;9.02;42.73;95255.25;5043899;28;20182;-81
2022/03/16 04:45:59;;;;;;;27.37;23.30;;;;;;;9.05;42.65;95249.69;5050779;28;20190;-80
2022/03/16 04:48:25;;;;;;;28.30;22.33;;;;;;;9.05;42.39;95251.47;5046643;28;20268;-81
2022/03/16 04:50:50;;;;;;;33.20;23.00;;;;;;;9.03;42.52;95248.22;5059917;28;20205;-81
2022/03/16 04:53:16;;;;;;;29.90;23.17;;;;;;;9.01;42.37;95243.19;5056463;28;20204;-81
2022/03/16 04:55:42;;;;;;;31.00;25.17;;;;;;;9.27;42.19;95257.75;5035320;28;20192;-80
2022/03/16 04:58:08;;;;;;;28.27;21.20;;;;;;;9.13;42.87;95241.81;5062219;28;20182;-80
2022/03/16 05:00:35;;;;;;;26.83;21.83;;;;;;;9.37;41.17;95240.91;5048528;28;20438;-81
2022/03/16 05:03:02;;;;;;;39.83;22.20;;;;;;;9.35;41.64;95235.03;5032186;28;20621;-80
2022/03/16 05:05:28;;;;;;;28.97;20.67;;;;;;;9.01;42.14;95235.38;5063506;28;20912;-79
2022/03/16 05:07:54;;;;;;;35.70;23.80;;;;;;;9.29;42.00;95233.06;5055298;28;20740;-80
2022/03/16 05:10:20;;;;;;;30.80;21.80;;;;;;;9.15;41.62;95237.22;5065668;28;20476;-80
2022/03/16 05:12:45;;;;;;;33.27;23.33;;;;;;;9.14;42.41;95227.78;5054830;28;20457;-80
2022/03/16 05:15:18;;;;;;;30.17;21.10;;;;;;;9.27;41.99;95229.03;5039196;28;20186;-81
2022/03/16 05:17:45;;;;;;;28.17;21.17;;;;;;;9.08;42.06;95223.22;5062395;28;20234;-81
2022/03/16 05:20:12;;;;;;;35.40;22.60;;;;;;;9.19;42.17;95224.66;5058491;28;20440;-81
2022/03/16 05:22:41;;;;;;;34.47;22.73;;;;;;;9.52;41.02;95219.25;5068484;28;20422;-81
2022/03/16 05:25:07;;;;;;;36.47;22.03;;;;;;;9.38;41.56;95218.19;5066758;28;20508;-80
2022/03/16 05:27:33;;;;;;;35.53;21.60;;;;;;;9.30;42.10;95215.63;5054705;28;20422;-81
2022/03/16 05:29:58;;;;;;;42.87;22.20;;;;;;;9.44;41.39;95204.44;5066968;28;20428;-80
2022/03/16 05:32:23;;;;;;;29.77;22.47;;;;;;;9.29;41.41;95206.16;5055458;28;20271;-81
2022/03/16 05:34:49;;;;;;;30.77;22.27;;;;;;;9.35;41.79;95203.69;5040990;28;20275;-81
2022/03/16 05:37:14;;;;;;;39.03;24.80;;;;;;;9.50;41.63;95198.50;5042292;28;20251;-80
2022/03/16 05:39:40;;;;;;;33.00;21.40;;;;;;;9.53;40.67;95194.75;5053951;28;20654;-80
2022/03/16 05:42:06;;;;;;;33.37;21.10;;;;;;;9.32;41.04;95192.75;5059358;28;20167;-80
2022/03/16 05:44:32;;;;;;;41.17;21.83;;;;;;;9.32;41.32;95182.31;5068099;28;20175;-80
2022/03/16 05:46:58;;;;;;;41.73;21.67;;;;;;;9.09;41.56;95182.28;5037711;28;20182;-81
2022/03/16 05:49:25;;;;;;;33.40;21.33;;;;;;;9.42;41.31;95172.44;5068114;28;20409;-81
2022/03/16 05:51:51;;;;;;;37.87;23.57;;;;;;;9.55;41.49;95161.41;5056469;28;20551;-80
2022/03/16 05:54:17;;;;;;;41.13;23.73;;;;;;;9.51;40.60;95168.78;5065001;28;20417;-80
2022/03/16 05:56:42;;;;;;;34.87;23.00;;;;;;;9.69;40.19;95170.28;5057573;28;20425;-81
2022/03/16 05:59:08;;;;;;;42.10;27.57;;;;;;;9.55;41.28;95162.22;5050094;28;20231;-81
2022/03/16 06:01:33;;;;;;;40.17;26.10;;;;;;;9.51;41.45;95171.41;5059134;28;20183;-81
2022/03/16 06:03:59;;;;;;;40.57;25.17;;;;;;;9.60;41.98;95171.34;5062900;28;20178;-80
2022/03/16 06:06:26;;;;;;;33.53;24.60;;;;;;;9.60;40.72;95185.22;5063899;28;20439;-80
2022/03/16 06:08:52;;;;;;;43.00;26.67;;;;;;;9.76;40.61;95181.66;5050322;28;20309;-79
2022/03/16 06:11:18;;;;;;;47.20;29.00;;;;;;;9.78;40.60;95185.72;5063828;28;20460;-80
2022/03/16 06:13:44;;;;;;;43.40;29.90;;;;;;;9.68;41.06;95186.97;5066573;28;20424;-81
2022/03/16 06:16:09;;;;;;;49.63;32.17;;;;;;;9.93;40.75;95180.53;5042593;28;20198;-81
2022/03/16 06:18:35;;;;;;;44.50;29.63;;;;;;;9.77;40.44;95172.84;5075345;28;20178;-81
2022/03/16 06:21:00;;;;;;;54.90;31.33;;;;;;;9.75;40.88;95180.03;5053090;28;20865;-81
2022/03/16 06:23:26;;;;;;;57.33;33.90;;;;;;;10.23;39.94;95180.59;5056085;28;20183;-81
2022/03/16 06:25:51;;;;;;;58.63;33.70;;;;;;;9.96;40.75;95174.97;5046464;28;20194;-81
2022/03/16 06:28:17;;;;;;;47.47;32.17;;;;;;;10.06;40.88;95179.16;5046848;28;20194;-80
2022/03/16 06:30:42;;;;;;;58.27;31.97;;;;;;;10.08;40.47;95182.38;5029063;28;20337;-81
2022/03/16 06:33:07;;;;;;;49.90;33.20;;;;;;;10.01;40.60;95178.84;5059292;28;20208;-81
2022/03/16 06:35:33;;;;;;;48.00;33.10;;;;;;;10.08;41.12;95177.97;5053342;28;20182;-81
2022/03/16 06:37:59;;;;;;;41.63;29.60;;;;;;;10.14;40.93;95182.47;5038927;28;20183;-81
2022/03/16 06:40:25;;;;;;;49.07;30.90;;;;;;;10.31;40.23;95187.59;5050022;28;20432;-81
2022/03/16 06:42:54;;;;;;;55.93;34.00;;;;;;;9.76;42.33;95184.28;5067855;28;20222;-81
2022/03/16 06:45:21;;;;;;;104.17;42.63;;;;;;;9.76;41.74;95179.06;5053779;28;20179;-81
2022/03/16 06:47:47;;;;;;;90.37;41.93;;;;;;;9.81;41.99;95187.19;5067146;28;20417;-81
2022/03/16 06:50:13;;;;;;;78.93;44.70;;;;;;;9.60;42.47;95179.19;5033347;28;20822;-81
2022/03/16 06:52:39;;;;;;;107.73;50.83;;;;;;;9.42;43.58;95182.91;5037466;28;20198;-81
2022/03/16 06:55:07;;;;;;;150.80;58.27;;;;;;;9.29;44.21;95187.88;5051767;28;20952;-81
2022/03/16 06:57:32;;;;;;;123.60;53.23;;;;;;;9.46;43.23;95183.38;5055190;28;20504;-81
2022/03/16 06:59:58;;;;;;;114.63;54.60;;;;;;;8.91;44.06;95190.34;5034826;28;20446;-80
2022/03/16 07:02:23;;;;;;;73.77;50.97;;;;;;;8.70;45.00;95186.53;5035505;28;20175;-81
2022/03/16 07:04:48;;;;;;;82.07;51.93;;;;;;;9.37;43.22;95182.59;5056418;28;20241;-81
2022/03/16 07:07:14;;;;;;;109.43;56.20;;;;;;;9.47;42.76;95179.78;5060620;28;20172;-80
2022/03/16 07:09:39;;;;;;;86.47;50.50;;;;;;;9.86;42.72;95171.78;5050134;28;20238;-81
2022/03/16 07:12:05;;;;;;;82.80;53.57;;;;;;;9.90;42.31;95164.41;5043054;28;20195;-81
2022/03/16 07:14:31;;;;;;;77.80;51.30;;;;;;;10.00;42.11;95164.13;5032835;28;20199;-81
2022/03/16 07:17:00;;;;;;;98.03;52.43;;;;;;;10.15;42.22;95167.63;5034262;28;20419;-81
2022/03/16 07:19:26;;;;;;;89.50;50.33;;;;;;;10.30;42.22;95172.84;5046949;28;20176;-81
2022/03/16 07:21:51;;;;;;;140.23;52.40;;;;;;;10.34;41.84;95177.59;5060356;28;20441;-81
2022/03/16 07:24:17;;;;;;;132.07;51.40;;;;;;;10.60;41.61;95175.50;5062162;28;20540;-80
2022/03/16 07:26:42;;;;;;;91.17;49.83;;;;;;;10.66;41.54;95173.00;5060376;28;20209;-81
2022/03/16 07:29:08;;;;;;;81.30;47.50;;;;;;;10.67;41.60;95174.59;5043613;28;20190;-81
2022/03/16 07:31:34;;;;;;;80.43;48.63;;;;;;;10.64;41.38;95177.59;5057004;28;20206;-81
2022/03/16 07:34:00;;;;;;;96.23;49.20;;;;;;;10.71;40.93;95175.06;5052346;28;20186;-81
2022/03/16 07:36:26;;;;;;;96.40;51.00;;;;;;;10.85;40.60;95174.25;5061075;28;20210;-81
2022/03/16 07:38:51;;;;;;;127.10;51.87;;;;;;;10.88;40.78;95171.25;5058621;28;20445;-81
2022/03/16 07:41:17;;;;;;;116.90;47.97;;;;;;;10.72;41.37;95172.25;5055049;28;20201;-81
2022/03/16 07:43:42;;;;;;;93.50;45.70;;;;;;;10.75;40.83;95164.03;5061008;28;20171;-80
2022/03/16 07:46:08;;;;;;;79.30;47.30;;;;;;;11.30;39.63;95159.22;5052052;28;20193;-81
2022/03/16 07:48:37;;;;;;;76.27;43.53;;;;;;;11.19;40.04;95148.41;5057943;28;20178;-80
2022/03/16 07:51:03;;;;;;;68.50;42.30;;;;;;;10.66;41.21;95157.28;5052996;28;20190;-81
2022/03/16 07:53:29;;;;;;;83.77;44.57;;;;;;;10.98;40.82;95157.84;5052627;28;20517;-80
2022/03/16 07:55:56;;;;;;;65.47;42.47;;;;;;;11.10;40.62;95159.00;5058084;28;20797;-81
2022/03/16 07:58:22;;;;;;;60.83;38.70;;;;;;;11.28;39.86;95157.78;5061703;28;20202;-81
2022/03/16 08:00:48;;;;;;;57.20;39.43;;;;;;;10.83;41.29;95154.44;5056219;28;20464;-80
2022/03/16 08:03:13;;;;;;;59.30;38.03;;;;;;;11.28;40.61;95152.53;5060251;28;20397;-81
2022/03/16 08:05:39;;;;;;;52.97;36.60;;;;;;;11.25;39.83;95152.91;5047867;28;20218;-80
2022/03/16 08:08:05;;;;;;;60.83;37.70;;;;;;;11.01;39.93;95146.22;5045045;28;20224;-81
2022/03/16 08:10:31;;;;;;;52.30;35.50;;;;;;;11.18;40.13;95147.63;5051401;28;20227;-81
2022/03/16 08:12:57;;;;;;;57.07;37.60;;;;;;;10.66;41.41;95152.06;5029308;28;20465;-81
2022/03/16 08:15:22;;;;;;;58.40;33.43;;;;;;;11.20;40.52;95157.91;5055453;28;20189;-81
2022/03/16 08:17:47;;;;;;;56.63;32.57;;;;;;;11.52;38.84;95144.31;5058457;28;20210;-81
2022/03/16 08:20:13;;;;;;;50.37;34.10;;;;;;;11.09;39.42;95144.28;5058005;28;20190;-81
2022/03/16 08:22:38;;;;;;;40.20;31.63;;;;;;;11.00;38.93;95140.16;5055073;28;20179;-81
2022/03/16 08:25:10;;;;;;;51.80;32.00;;;;;;;11.52;38.01;95133.03;5056104;28;20186;-80
2022/03/16 08:27:37;;;;;;;44.83;30.40;;;;;;;12.05;36.75;95127.44;5052441;28;20178;-81
2022/03/16 08:30:06;;;;;;;48.93;31.80;;;;;;;11.29;37.93;95118.31;5065094;28;20467;-80
2022/03/16 08:32:32;;;;;;;43.10;30.00;;;;;;;11.43;37.37;95114.00;5047983;28;20507;-80
2022/03/16 08:34:57;;;;;;;57.13;31.90;;;;;;;11.77;37.13;95117.72;5046912;28;20433;-80
2022/03/16 08:37:23;;;;;;;55.10;30.37;;;;;;;12.09;37.15;95118.19;5057406;28;20277;-81
2022/03/16 08:39:49;;;;;;;45.80;29.80;;;;;;;12.29;36.12;95115.66;5037089;28;20183;-81
2022/03/16 08:42:16;;;;;;;47.77;31.67;;;;;;;12.58;35.57;95114.63;5046719;28;20489;-80
2022/03/16 08:44:42;;;;;;;43.80;28.97;;;;;;;12.43;36.30;95119.19;5051404;28;20214;-81
2022/03/16 08:47:10;;;;;;;36.50;26.93;;;;;;;12.71;34.62;95127.00;5060283;28;20442;-81
2022/03/16 08:49:37;;;;;;;54.37;28.30;;;;;;;12.53;33.68;95122.25;5058561;28;20520;-81
2022/03/16 08:52:04;;;;;;;46.30;26.57;;;;;;;12.76;33.88;95118.53;5048672;28;20441;-80
2022/03/16 08:54:30;;;;;;;33.00;24.50;;;;;;;12.69;33.30;95110.63;5067205;28;20472;-80
2022/03/16 08:56:55;;;;;;;33.47;22.33;;;;;;;12.56;33.13;95108.75;5045336;28;20428;-81
2022/03/16 08:59:22;;;;;;;34.27;23.70;;;;;;;12.64;32.68;95103.34;5059033;28;20182;-81
2022/03/16 09:01:48;;;;;;;33.27;22.40;;;;;;;13.12;32.87;95101.69;5060809;28;20181;-80
2022/03/16 09:04:13;;;;;;;41.17;23.17;;;;;;;13.36;32.22;95102.97;5063184;28;21244;-81
2022/03/16 09:06:40;;;;;;;35.43;23.47;;;;;;;13.28;32.37;95107.38;5062624;28;20187;-81
2022/03/16 09:09:05;;;;;;;37.23;22.90;;;;;;;13.68;31.87;95101.41;5055902;28;20230;-81
2022/03/16 09:11:32;;;;;;;44.23;23.63;;;;;;;13.17;33.17;95104.53;5063210;28;20452;-80
2022/03/16 09:13:57;;;;;;;28.53;22.70;;;;;;;13.26;32.87;95111.19;5046140;28;20184;-81
2022/03/16 09:16:23;;;;;;;41.20;23.27;;;;;;;12.84;33.48;95107.84;5059878;28;20433;-80
2022/03/16 09:18:49;;;;;;;25.50;19.37;;;;;;;12.68;32.38;95101.94;5061997;28;20189;-81
2022/03/16 09:21:15;;;;;;;33.90;20.87;;;;;;;13.23;32.30;95114.25;5045420;28;20183;-81
2022/03/16 09:23:41;;;;;;;31.07;20.00;;;;;;;13.41;32.17;95122.41;5061335;28;20424;-81
2022/03/16 09:26:06;;;;;;;27.57;19.17;;;;;;;13.67;32.05;95120.81;5052424;28;20187;-81
2022/03/16 09:28:33;;;;;;;42.43;20.70;;;;;;;13.77;31.79;95117.75;5055349;28;20182;-81
2022/03/16 09:30:59;;;;;;;34.77;19.67;;;;;;;13.98;30.45;95122.00;5062201;28;20237;-81
2022/03/16 09:33:24;;;;;;;26.40;20.07;;;;;;;13.90;31.13;95123.03;5059101;28;20462;-81
2022/03/16 09:35:51;;;;;;;32.80;21.33;;;;;;;14.04;30.55;95121.22;5063103;28;20441;-80
2022/03/16 09:38:18;;;;;;;29.70;19.70;;;;;;;13.90;30.88;95109.06;5051585;28;20182;-81
2022/03/16 09:40:45;;;;;;;29.97;18.93;;;;;;;14.13;30.17;95119.97;5036603;28;20442;-80
2022/03/16 09:43:18;;;;;;;26.23;19.00;;;;;;;14.31;30.58;95126.44;5058203;28;20471;-80
2022/03/16 09:46:11;;;;;;;25.07;19.40;;;;;;;14.38;30.60;95106.97;5056973;28;20496;-81
2022/03/16 09:48:39;;;;;;;33.30;19.00;;;;;;;14.50;29.37;95115.06;5034404;28;21018;-82
2022/03/16 09:51:06;;;;;;;52.87;22.53;;;;;;;14.35;29.95;95111.84;5049991;28;20433;-81
2022/03/16 09:53:32;;;;;;;25.27;18.20;;;;;;;14.58;28.75;95111.41;5033638;28;20425;-81
2022/03/16 09:55:58;;;;;;;31.50;18.20;;;;;;;14.27;29.31;95106.81;5054732;28;20429;-81
2022/03/16 09:58:23;;;;;;;26.57;18.40;;;;;;;13.69;29.95;95113.50;5062077;28;20406;-80
2022/03/16 10:00:52;;;;;;;32.20;20.23;;;;;;;13.29;30.49;95113.44;5058196;28;20435;-80
2022/03/16 10:03:21;;;;;;;32.80;19.20;;;;;;;13.70;30.17;95104.63;5054951;28;20179;-81
2022/03/16 10:05:47;;;;;;;53.83;22.67;;;;;;;13.81;31.46;95106.66;5047641;28;20436;-81
2022/03/16 10:08:14;;;;;;;32.57;21.60;;;;;;;13.51;30.46;95095.72;5055372;28;20446;-81
2022/03/16 10:13:25;;;;;;;26.67;20.37;;;;;;;14.16;29.48;95093.25;5056338;28;20508;-80
2022/03/16 10:15:52;;;;;;;29.00;20.00;;;;;;;14.09;29.89;95091.63;5047237;28;20425;-81
2022/03/16 10:18:21;;;;;;;30.20;17.00;;;;;;;13.17;30.71;95097.44;5056875;28;20418;-81
2022/03/16 10:20:47;;;;;;;24.13;18.20;;;;;;;12.16;32.08;95084.94;5053179;28;20433;-80
2022/03/16 10:23:21;;;;;;;28.80;18.40;;;;;;;12.02;32.69;95085.84;5058847;28;20536;-80
2022/03/16 10:25:51;;;;;;;30.30;19.10;;;;;;;12.35;32.07;95091.31;5057861;28;20293;-80
2022/03/16 10:28:28;;;;;;;30.23;20.57;;;;;;;12.62;32.46;95094.84;5037845;28;20455;-81
2022/03/16 10:31:00;;;;;;;34.30;22.60;;;;;;;12.88;32.03;95085.44;5036663;28;20437;-81
2022/03/16 10:33:46;;;;;;;30.13;21.63;;;;;;;13.08;31.97;95091.56;5050168;28;20921;-81
2022/03/16 10:36:14;;;;;;;24.43;20.10;;;;;;;13.67;30.95;95083.97;5056881;28;20425;-81
2022/03/16 10:38:45;;;;;;;35.77;26.07;;;;;;;13.18;31.92;95091.16;5050893;28;20422;-81
2022/03/16 10:46:34;;;;;;;41.43;28.50;;;;;;;13.12;32.66;95094.59;5053285;28;20453;-81
2022/03/16 10:46:46;;;;;;;46.40;29.07;;;;;;;13.13;33.30;95088.34;5050162;28;20474;-81
2022/03/16 10:49:16;;;;;;;37.90;29.07;;;;;;;13.33;32.90;95082.34;5056753;28;20402;-80
2022/03/16 10:51:43;;;;;;;43.93;29.10;;;;;;;13.47;32.24;95084.78;5053919;28;20469;-82
2022/03/16 10:54:08;;;;;;;46.37;29.60;;;;;;;13.18;33.53;95078.03;5058189;28;21343;-80
2022/03/16 10:56:38;;;;;;;41.93;29.30;;;;;;;13.36;33.34;95066.97;5037206;28;20433;-80
2022/03/16 10:59:04;;;;;;;42.63;30.20;;;;;;;13.23;33.70;95066.94;5037335;28;20243;-82
2022/03/16 11:01:31;;;;;;;42.13;29.50;;;;;;;13.38;33.15;95072.84;5053372;28;20418;-80
2022/03/16 11:03:58;;;;;;;41.60;29.97;;;;;;;14.02;32.03;95081.16;5052589;28;20925;-80
2022/03/16 11:06:24;;;;;;;40.07;29.63;;;;;;;14.40;32.67;95067.28;5052854;28;20836;-80
2022/03/16 11:08:51;;;;;;;53.63;30.97;;;;;;;14.34;32.35;95063.66;5063236;28;20503;-81
2022/03/16 11:14:04;;;;;;;43.40;27.80;;;;;;;14.27;31.26;95054.16;5055423;28;20745;-80
2022/03/16 11:16:32;;;;;;;41.50;27.10;;;;;;;14.51;30.70;95048.19;5056234;28;20430;-81
2022/03/16 11:19:03;;;;;;;38.40;24.23;;;;;;;13.92;31.94;95039.44;5049200;28;20501;-80
2022/03/16 11:21:39;;;;;;;41.53;26.67;;;;;;;13.40;32.96;95034.00;5038538;28;20429;-81
2022/03/16 11:24:16;;;;;;;45.87;26.47;;;;;;;13.67;33.02;95020.84;5054816;28;20418;-81
2022/03/16 11:27:15;;;;;;;39.03;25.57;;;;;;;14.03;32.33;95019.59;5054546;28;20523;-81